Hauptseite
METAR-TAF:

METAR-TAF

Flughäfen :

Mont-De-Marsan, Frankreich

Militärflugplatz Mont-de-Marsan

Breite: 43-55N, Länge: 000-30W, Höhe: 62 m

Beobachtung

Neuester Wetterbericht von vor 24 Minuten, um 05:30 UTC
Windstille
Temperatur 7°C
Luftfeuchtigkeit 100%
Luftdruck 1024 hPa
Sichtweite 10 km oder mehr
keine Wolken unter 1500 m und keine Kumulonimbus oder Gewitterwolken

METAR: LFBM 260530Z AUTO 00000KT CAVOK 07/07 Q1024 NOSIG

Zeit: 07:54 (05:54 UTC)

Prognose

Neuester Wetterbericht von vor 2 Stunden und 19 Minuten, um 03:35 UTC
Gültige Prognose vom 26 um 03 UTC bis 27 um 03 UTC
Wind 5 kt aus Nord/Nordwest
Sichtweite 10 km oder mehr
keine Wolken unter 1500 m und keine Kumulonimbus oder Gewitterwolken
Wahrscheinlichkeit 30% :
Zeitweise
vom 26 um 04 UTC bis 26 um 06 UTC
Sichtweite: 3000 m
Nebelschwaden

TAF: LFBM 260335Z 2603/2703 33005KT CAVOK PROB30 TEMPO 2604/2606 3000 BCFG

Wetterbeobachtungen und Prognosen von mehr als 4000 Flughäfen (METAR und TAF Bericht).

Die verfügbaren Stationen werden durch gelbe und rote Markierungen auf der Karte dargestellt.

Führen Sie die Maus auf sie, um den Namen der Station zu sehen.

Darauf klicken, um die Beobachtung von Wetterbeobachtungen und Prognosen zu sehen.

Um die Karte zu ändern : klicken Sie auf den grünen Tasten mit einem schwarzen Kreuz Zum Vergrößern, auf den grünen Button mit einem Gedankenstrich zu verkleinern, oder auf die grünen Pfeile für benachbarte Karten.


METAR-TAF: